Time;durP1;ratioP1;P1;durP2;ratioP2;P2;SDS_P1;SDS_P2;PMS_P1;PMS_P2;Temp;Humidity;BMP_temperature;BMP_pressure;BME280_temperature;BME280_humidity;BME280_pressure;Samples;Min_cycle;Max_cycle;Signal;HPM_P1;HPM_P2
2022/01/19 00:00:14;;;;;;;125.70;35.85;;;5.30;99.90;;;;;;4863620;29;20128;-91
2022/01/19 00:02:40;;;;;;;113.38;34.53;;;5.20;99.90;;;;;;4848830;29;20056;-90
2022/01/19 00:05:07;;;;;;;121.07;33.38;;;5.20;99.90;;;;;;4861867;29;20040;-92
2022/01/19 00:07:32;;;;;;;125.35;35.42;;;5.20;99.90;;;;;;4856089;29;20847;-90
2022/01/19 00:10:05;;;;;;;115.13;32.92;;;5.20;99.90;;;;;;4862283;29;20123;-90
2022/01/19 00:12:31;;;;;;;111.60;35.28;;;5.20;99.90;;;;;;4857533;29;20059;-91
2022/01/19 00:14:57;;;;;;;132.63;35.90;;;5.20;99.90;;;;;;4853211;29;20044;-91
2022/01/19 00:17:22;;;;;;;115.18;34.25;;;5.30;99.90;;;;;;4860406;29;20056;-91
2022/01/19 00:19:48;;;;;;;117.30;32.88;;;5.30;99.90;;;;;;4865355;29;20044;-90
2022/01/19 00:22:13;;;;;;;126.82;34.30;;;5.30;99.90;;;;;;4857750;29;20048;-92
2022/01/19 00:24:41;;;;;;;117.05;33.80;;;5.30;99.90;;;;;;4856257;29;20093;-91
2022/01/19 00:27:07;;;;;;;113.20;32.90;;;5.30;99.90;;;;;;4857954;29;20040;-91
2022/01/19 00:29:32;;;;;;;111.50;30.00;;;5.20;99.90;;;;;;4867547;29;20045;-91
2022/01/19 00:31:58;;;;;;;105.97;30.58;;;5.40;99.90;;;;;;4854423;29;20045;-91
2022/01/19 00:34:24;;;;;;;108.70;30.88;;;5.40;99.90;;;;;;4863291;29;20169;-90
2022/01/19 00:36:49;;;;;;;99.80;30.42;;;5.40;99.90;;;;;;4862783;29;20055;-91
2022/01/19 00:39:15;;;;;;;97.50;30.13;;;5.30;99.90;;;;;;4852704;29;20048;-91
2022/01/19 00:41:40;;;;;;;96.97;29.60;;;5.30;99.90;;;;;;4858699;29;20060;-90
2022/01/19 00:44:06;;;;;;;100.25;30.55;;;5.20;99.90;;;;;;4864164;29;20129;-90
2022/01/19 00:46:32;;;;;;;116.47;30.45;;;5.10;99.90;;;;;;4849682;29;20217;-91
2022/01/19 00:48:57;;;;;;;114.05;31.65;;;5.00;99.90;;;;;;4851735;29;20647;-90
2022/01/19 00:51:23;;;;;;;99.55;29.00;;;5.00;99.90;;;;;;4848474;29;20491;-90
2022/01/19 00:53:48;;;;;;;97.38;29.45;;;5.10;99.90;;;;;;4888400;29;20108;-91
2022/01/19 00:56:14;;;;;;;94.30;29.55;;;5.10;99.90;;;;;;4852527;29;20092;-90
2022/01/19 00:58:39;;;;;;;104.07;30.52;;;5.10;99.90;;;;;;4864473;29;20135;-91
2022/01/19 01:01:05;;;;;;;116.50;30.58;;;5.20;99.90;;;;;;4862382;29;20132;-92
2022/01/19 01:03:30;;;;;;;123.35;33.90;;;5.20;99.90;;;;;;4852376;29;20563;-91
2022/01/19 01:05:56;;;;;;;116.43;32.33;;;5.30;99.90;;;;;;4858778;29;20048;-90
2022/01/19 01:08:22;;;;;;;117.28;29.52;;;5.30;99.90;;;;;;4883015;29;20056;-91
2022/01/19 01:10:49;;;;;;;105.07;30.70;;;5.20;99.90;;;;;;4871668;29;20510;-91
2022/01/19 01:16:00;;;;;;;113.63;29.63;;;5.30;99.90;;;;;;4876894;29;20107;-90
2022/01/19 01:18:27;;;;;;;120.22;30.67;;;5.20;99.90;;;;;;4873714;29;20329;-92
2022/01/19 01:20:54;;;;;;;137.45;32.13;;;5.20;99.90;;;;;;4870892;29;20045;-90
2022/01/19 01:23:23;;;;;;;121.13;32.60;;;5.20;99.90;;;;;;4862565;29;20139;-91
2022/01/19 01:25:49;;;;;;;121.63;31.60;;;5.20;99.90;;;;;;4888166;29;20446;-90
2022/01/19 01:28:15;;;;;;;131.93;33.17;;;5.20;99.90;;;;;;4859983;29;20099;-90
2022/01/19 01:30:41;;;;;;;112.32;31.02;;;5.10;99.90;;;;;;4845831;29;20134;-91
2022/01/19 01:33:06;;;;;;;132.38;32.97;;;5.10;99.90;;;;;;4859660;29;20496;-90
2022/01/19 01:35:32;;;;;;;129.52;34.05;;;5.00;99.90;;;;;;4850140;29;20049;-90
2022/01/19 01:37:58;;;;;;;105.68;29.98;;;4.80;99.90;;;;;;4849305;29;20077;-90
2022/01/19 01:40:26;;;;;;;118.25;33.65;;;5.00;99.90;;;;;;4854904;29;20068;-91
2022/01/19 01:42:54;;;;;;;122.03;33.42;;;5.00;99.90;;;;;;4852794;29;20049;-90
2022/01/19 01:45:25;;;;;;;122.72;32.50;;;4.90;99.90;;;;;;4877752;29;20096;-90
2022/01/19 01:48:01;;;;;;;116.05;32.22;;;4.80;99.90;;;;;;4844391;29;20076;-90
2022/01/19 01:53:26;;;;;;;113.40;32.67;;;5.00;99.90;;;;;;4875247;29;20060;-91
2022/01/19 01:55:54;;;;;;;121.10;33.28;;;4.90;99.90;;;;;;4855403;29;20037;-90
2022/01/19 01:58:19;;;;;;;112.13;30.42;;;4.80;99.90;;;;;;4857371;29;20408;-91
2022/01/19 02:00:45;;;;;;;123.65;33.40;;;4.80;99.90;;;;;;4851543;29;20056;-90
2022/01/19 02:03:12;;;;;;;125.50;32.78;;;4.80;99.90;;;;;;4852000;29;20108;-91
2022/01/19 02:05:48;;;;;;;115.88;31.65;;;4.80;99.90;;;;;;4854323;29;20050;-91
2022/01/19 02:08:21;;;;;;;124.95;33.42;;;4.90;99.90;;;;;;4860910;29;20621;-90
2022/01/19 02:16:34;;;;;;;;;;;4.50;99.90;;;;;;4878004;29;20411;-91
2022/01/19 02:22:05;;;;;;;114.53;33.78;;;4.50;99.90;;;;;;4800092;29;20046;-89
2022/01/19 02:24:40;;;;;;;129.60;35.75;;;4.60;99.90;;;;;;4801900;29;20993;-91
2022/01/19 02:27:15;;;;;;;140.43;35.88;;;4.60;99.90;;;;;;4802939;29;20188;-91
2022/01/19 02:40:27;;;;;;;120.78;33.47;;;4.60;99.90;;;;;;4802252;29;20050;-91
2022/01/19 02:50:59;;;;;;;122.57;33.08;;;4.30;99.90;;;;;;4798440;29;20062;-90
2022/01/19 02:53:24;;;;;;;132.38;35.83;;;4.30;99.90;;;;;;4796768;29;20043;-91
2022/01/19 02:55:50;;;;;;;130.75;35.63;;;4.30;99.90;;;;;;4831044;29;20053;-91
2022/01/19 02:58:19;;;;;;;139.32;36.63;;;4.30;99.90;;;;;;4877103;29;20115;-91
2022/01/19 03:08:42;;;;;;;137.52;35.90;;;4.20;99.90;;;;;;4874520;29;20076;-91
2022/01/19 03:09:03;;;;;;;129.48;36.65;;;4.20;99.90;;;;;;4875342;29;20052;-90
2022/01/19 03:11:28;;;;;;;126.45;35.15;;;4.30;99.90;;;;;;4856813;29;20076;-90
2022/01/19 03:13:55;;;;;;;126.63;33.38;;;4.40;99.90;;;;;;4859076;29;20491;-90
2022/01/19 03:16:21;;;;;;;141.68;36.92;;;4.40;99.90;;;;;;4861970;29;20139;-91
2022/01/19 03:18:48;;;;;;;131.38;36.55;;;4.30;99.90;;;;;;4864980;29;20045;-91
2022/01/19 03:21:15;;;;;;;135.18;37.38;;;4.30;99.90;;;;;;4887021;29;20040;-91
2022/01/19 03:23:40;;;;;;;127.70;35.08;;;4.40;99.90;;;;;;4866363;29;20085;-90
2022/01/19 03:26:06;;;;;;;145.57;37.28;;;4.40;99.90;;;;;;4859512;29;20036;-90
2022/01/19 03:28:36;;;;;;;144.57;35.20;;;4.40;99.90;;;;;;4877190;29;20053;-91
2022/01/19 03:31:04;;;;;;;165.30;40.13;;;4.30;99.90;;;;;;4859729;29;20037;-90
2022/01/19 03:33:30;;;;;;;173.77;38.88;;;4.10;99.90;;;;;;4865752;29;20049;-90
2022/01/19 03:35:55;;;;;;;158.45;38.20;;;4.00;99.90;;;;;;4860458;29;20069;-92
2022/01/19 03:38:21;;;;;;;160.07;37.00;;;4.00;99.90;;;;;;4857791;29;20139;-90
2022/01/19 03:40:47;;;;;;;154.05;36.88;;;4.00;99.90;;;;;;4872634;29;20037;-91
2022/01/19 03:43:12;;;;;;;173.95;38.70;;;3.90;99.90;;;;;;4859475;29;20147;-90
2022/01/19 03:45:38;;;;;;;182.52;37.80;;;3.90;99.90;;;;;;4855194;29;20060;-91
2022/01/19 03:48:15;;;;;;;144.48;37.95;;;3.90;99.90;;;;;;4863545;29;20076;-90
2022/01/19 03:50:41;;;;;;;186.38;40.25;;;3.90;99.90;;;;;;4852115;29;20045;-91
2022/01/19 03:53:06;;;;;;;151.65;37.47;;;3.80;99.90;;;;;;4852760;29;20099;-91
2022/01/19 03:55:32;;;;;;;137.20;38.75;;;3.80;99.90;;;;;;4879440;29;20048;-90
2022/01/19 03:57:58;;;;;;;130.95;37.25;;;4.00;99.90;;;;;;4863051;29;20040;-91
2022/01/19 04:00:23;;;;;;;126.38;34.53;;;4.00;99.90;;;;;;4860834;29;20515;-91
2022/01/19 04:02:49;;;;;;;119.97;35.65;;;4.10;99.90;;;;;;4867839;29;20041;-90
2022/01/19 04:05:25;;;;;;;114.95;31.85;;;4.20;99.90;;;;;;4869105;29;20594;-91
2022/01/19 04:07:51;;;;;;;118.05;34.97;;;4.10;99.90;;;;;;4848199;29;20101;-91
2022/01/19 04:10:17;;;;;;;120.18;34.33;;;4.20;99.90;;;;;;4858705;29;20049;-92
2022/01/19 04:12:47;;;;;;;105.35;33.70;;;4.10;99.90;;;;;;4859089;29;20048;-91
2022/01/19 04:15:15;;;;;;;115.43;34.97;;;4.10;99.90;;;;;;4862861;29;20041;-91
2022/01/19 04:17:47;;;;;;;102.45;32.92;;;4.10;99.90;;;;;;4860423;29;20131;-90
2022/01/19 04:20:13;;;;;;;118.05;34.83;;;4.10;99.90;;;;;;4856255;29;20045;-91
2022/01/19 04:22:39;;;;;;;111.70;35.20;;;4.10;99.90;;;;;;4856037;29;20055;-91
2022/01/19 04:25:05;;;;;;;121.30;35.65;;;4.10;99.90;;;;;;4857991;29;20048;-91
2022/01/19 04:27:32;;;;;;;117.63;34.45;;;4.00;99.90;;;;;;4863164;29;20044;-92
2022/01/19 04:32:45;;;;;;;99.53;33.13;;;4.00;99.90;;;;;;4881201;29;20049;-91
2022/01/19 04:35:15;;;;;;;96.90;33.67;;;4.00;99.90;;;;;;4863315;29;20048;-91
2022/01/19 05:02:38;;;;;;;101.07;31.75;;;3.90;99.90;;;;;;4832912;29;19928;-91
2022/01/19 05:15:10;;;;;;;96.93;32.25;;;3.90;99.90;;;;;;4809167;29;20131;-90
2022/01/19 05:17:38;;;;;;;93.47;30.75;;;3.90;99.90;;;;;;4821014;29;20053;-90
2022/01/19 05:20:06;;;;;;;100.22;32.40;;;4.00;99.90;;;;;;4814353;29;20453;-90
2022/01/19 05:22:31;;;;;;;85.15;30.63;;;4.00;99.90;;;;;;4821964;29;20054;-91
2022/01/19 05:24:57;;;;;;;107.60;33.70;;;4.00;99.90;;;;;;4843528;29;20063;-92
2022/01/19 05:27:22;;;;;;;109.13;34.67;;;4.00;99.90;;;;;;4854884;29;20091;-91
2022/01/19 05:29:49;;;;;;;96.63;32.03;;;4.10;99.90;;;;;;4859058;29;20072;-92
2022/01/19 05:32:15;;;;;;;110.30;34.85;;;4.10;99.90;;;;;;4857233;29;20444;-91
2022/01/19 05:34:40;;;;;;;101.03;32.30;;;4.20;99.90;;;;;;4875133;29;20048;-91
2022/01/19 05:37:06;;;;;;;107.13;35.80;;;4.20;99.90;;;;;;4862279;29;20506;-91
2022/01/19 05:39:31;;;;;;;106.53;36.22;;;4.20;99.90;;;;;;4856642;29;20108;-92
2022/01/19 05:41:57;;;;;;;105.80;36.35;;;4.20;99.90;;;;;;4870745;29;20041;-90
2022/01/19 05:44:22;;;;;;;104.00;34.22;;;4.20;99.90;;;;;;4857157;29;20040;-92
2022/01/19 05:46:48;;;;;;;106.40;35.50;;;4.20;99.90;;;;;;4860425;29;20044;-92
2022/01/19 05:49:14;;;;;;;109.22;37.85;;;4.10;99.90;;;;;;4861789;29;20510;-91
2022/01/19 05:51:39;;;;;;;107.90;35.97;;;4.10;99.90;;;;;;4859252;29;20521;-92
2022/01/19 05:54:06;;;;;;;101.10;34.30;;;4.10;99.90;;;;;;4860860;29;20049;-92
2022/01/19 05:56:31;;;;;;;107.90;36.08;;;4.10;99.90;;;;;;4854361;29;20033;-90
2022/01/19 05:58:57;;;;;;;103.25;35.78;;;4.00;99.90;;;;;;4854106;29;20069;-89
2022/01/19 06:01:23;;;;;;;120.72;38.22;;;4.00;99.90;;;;;;4864018;29;20043;-91
2022/01/19 06:03:50;;;;;;;108.10;36.00;;;4.00;99.90;;;;;;4875885;29;20136;-92
2022/01/19 06:06:17;;;;;;;101.25;36.38;;;4.00;99.90;;;;;;4860667;29;20036;-91
2022/01/19 06:08:45;;;;;;;110.68;36.92;;;4.00;99.90;;;;;;4858771;29;20099;-93
2022/01/19 06:11:11;;;;;;;116.10;36.90;;;4.00;99.90;;;;;;4866431;29;20411;-92
2022/01/19 06:13:37;;;;;;;99.65;36.72;;;4.10;99.90;;;;;;4861845;29;20491;-92
2022/01/19 06:16:03;;;;;;;103.50;35.85;;;4.10;99.90;;;;;;4861955;29;20036;-92
2022/01/19 06:18:29;;;;;;;102.00;35.85;;;4.00;99.90;;;;;;4856432;29;20127;-92
2022/01/19 06:20:58;;;;;;;115.57;37.35;;;3.90;99.90;;;;;;4849892;29;20040;-92
2022/01/19 06:23:24;;;;;;;112.70;37.55;;;3.90;99.90;;;;;;4847256;29;20051;-93
2022/01/19 06:25:49;;;;;;;103.57;36.65;;;3.90;99.90;;;;;;4853337;29;20499;-91
2022/01/19 06:28:15;;;;;;;102.85;37.53;;;4.00;99.90;;;;;;4844541;29;20045;-92
2022/01/19 06:30:41;;;;;;;102.63;36.67;;;4.00;99.90;;;;;;4857357;29;20045;-91
2022/01/19 06:33:07;;;;;;;95.95;35.40;;;4.00;99.90;;;;;;4860109;29;20060;-92
2022/01/19 06:35:33;;;;;;;107.75;37.42;;;3.90;99.90;;;;;;4862137;29;20044;-92
2022/01/19 06:37:59;;;;;;;108.28;36.55;;;3.80;99.90;;;;;;4864086;29;20060;-91
2022/01/19 06:40:28;;;;;;;110.78;37.80;;;3.60;99.90;;;;;;4880720;29;20044;-90
2022/01/19 06:42:54;;;;;;;113.40;38.28;;;3.50;99.90;;;;;;4864622;29;20052;-91
2022/01/19 06:45:22;;;;;;;115.25;39.08;;;3.60;99.90;;;;;;4865048;29;20047;-91
2022/01/19 06:47:48;;;;;;;113.47;39.17;;;3.60;99.90;;;;;;4866519;29;20463;-91
2022/01/19 06:50:19;;;;;;;113.68;38.92;;;3.60;99.90;;;;;;4896363;29;20037;-91
2022/01/19 06:52:44;;;;;;;111.40;39.20;;;3.60;99.90;;;;;;4866578;29;20511;-91
2022/01/19 06:55:10;;;;;;;102.22;37.05;;;3.60;99.90;;;;;;4863129;29;20062;-93
2022/01/19 06:57:36;;;;;;;104.88;36.85;;;3.70;99.90;;;;;;4861363;29;20137;-91
2022/01/19 07:00:01;;;;;;;107.88;38.50;;;3.80;99.90;;;;;;4847601;29;20041;-90
2022/01/19 07:02:28;;;;;;;98.80;36.70;;;3.80;99.90;;;;;;4859515;29;20702;-90
2022/01/19 07:04:53;;;;;;;110.93;37.50;;;4.00;99.90;;;;;;4864485;29;20040;-90
2022/01/19 07:07:20;;;;;;;108.03;35.78;;;3.90;99.90;;;;;;4863818;29;20044;-90
2022/01/19 07:09:46;;;;;;;99.68;34.40;;;3.90;99.90;;;;;;4861446;29;20087;-90
2022/01/19 07:12:13;;;;;;;99.63;36.83;;;4.00;99.90;;;;;;4861820;29;20055;-91
2022/01/19 07:14:39;;;;;;;97.75;34.90;;;4.00;99.90;;;;;;4863153;29;20053;-90
2022/01/19 07:17:05;;;;;;;106.00;35.33;;;4.00;99.90;;;;;;4861530;29;20491;-90
2022/01/19 07:19:30;;;;;;;103.05;38.17;;;4.00;99.90;;;;;;4864588;29;20057;-90
2022/01/19 07:21:56;;;;;;;99.65;35.17;;;4.00;99.90;;;;;;4864279;29;20055;-90
2022/01/19 07:24:22;;;;;;;107.45;36.75;;;3.90;99.90;;;;;;4862978;29;20040;-90
2022/01/19 07:26:48;;;;;;;91.68;35.15;;;4.00;99.90;;;;;;4857450;29;20495;-91
2022/01/19 07:29:16;;;;;;;99.75;35.30;;;4.00;99.90;;;;;;4870808;29;20040;-90
2022/01/19 07:31:42;;;;;;;100.07;35.08;;;3.90;99.90;;;;;;4876341;29;20041;-90
2022/01/19 07:34:08;;;;;;;100.22;36.17;;;3.80;99.90;;;;;;4863695;29;20453;-91
2022/01/19 07:36:34;;;;;;;96.90;35.47;;;3.80;99.90;;;;;;4863641;29;20079;-91
2022/01/19 07:39:00;;;;;;;101.10;35.42;;;3.70;99.90;;;;;;4859289;29;20068;-90
2022/01/19 07:41:25;;;;;;;101.82;36.72;;;3.70;99.90;;;;;;4861759;29;20044;-90
2022/01/19 07:43:51;;;;;;;101.93;35.45;;;3.60;99.90;;;;;;4863205;29;20108;-90
2022/01/19 07:46:17;;;;;;;102.68;35.80;;;3.60;99.90;;;;;;4857839;29;20039;-91
2022/01/19 07:48:43;;;;;;;103.82;35.15;;;3.60;99.90;;;;;;4852408;29;20049;-90
2022/01/19 07:51:09;;;;;;;92.68;35.03;;;3.50;99.90;;;;;;4862628;29;20094;-91
2022/01/19 07:53:35;;;;;;;95.45;35.75;;;3.50;99.90;;;;;;4860561;29;20124;-90
2022/01/19 07:56:02;;;;;;;95.82;34.95;;;3.50;99.90;;;;;;4862020;29;20208;-91
2022/01/19 07:58:28;;;;;;;99.55;36.90;;;3.60;99.90;;;;;;4867575;29;20044;-91
2022/01/19 08:00:53;;;;;;;95.68;35.13;;;3.60;99.90;;;;;;4862234;29;20084;-91
2022/01/19 08:03:19;;;;;;;98.82;36.55;;;3.70;99.90;;;;;;4870547;29;20529;-91
2022/01/19 08:05:44;;;;;;;101.47;36.88;;;3.70;99.90;;;;;;4860452;29;20567;-89
2022/01/19 08:08:10;;;;;;;92.60;36.13;;;3.60;99.90;;;;;;4854706;29;20503;-89
2022/01/19 08:10:36;;;;;;;93.00;35.20;;;3.60;99.90;;;;;;4891997;29;20388;-89
2022/01/19 08:13:03;;;;;;;98.40;36.20;;;3.50;99.90;;;;;;4876572;29;20088;-89
2022/01/19 08:15:30;;;;;;;96.50;35.78;;;3.60;99.90;;;;;;4878747;29;20043;-89
2022/01/19 08:17:56;;;;;;;103.97;37.88;;;3.50;99.90;;;;;;4877618;29;20539;-89
2022/01/19 08:20:22;;;;;;;94.68;37.50;;;3.50;99.90;;;;;;4869203;29;20049;-89
2022/01/19 08:22:47;;;;;;;89.40;34.20;;;3.60;99.90;;;;;;4877172;29;20087;-89
2022/01/19 08:25:13;;;;;;;100.75;35.15;;;3.50;99.90;;;;;;4875192;29;20041;-89
2022/01/19 08:27:39;;;;;;;102.50;37.90;;;3.60;99.90;;;;;;4877264;29;20047;-88
2022/01/19 08:30:07;;;;;;;100.35;36.97;;;3.60;99.90;;;;;;4876904;29;20040;-88
2022/01/19 08:32:35;;;;;;;106.13;37.92;;;3.50;99.90;;;;;;4862239;29;20040;-89
2022/01/19 08:35:05;;;;;;;97.03;37.95;;;3.50;99.90;;;;;;4877054;29;20052;-89
2022/01/19 08:37:31;;;;;;;105.43;38.80;;;3.60;99.90;;;;;;4862038;29;20057;-89
2022/01/19 08:39:57;;;;;;;100.70;36.30;;;3.60;99.90;;;;;;4851968;29;20037;-89
2022/01/19 08:42:23;;;;;;;111.85;37.45;;;3.60;99.90;;;;;;4870624;29;20040;-89
2022/01/19 08:44:49;;;;;;;106.88;40.17;;;3.70;99.90;;;;;;4869251;29;20036;-89
2022/01/19 08:47:14;;;;;;;104.22;37.45;;;3.70;99.90;;;;;;4864907;29;20047;-89
2022/01/19 08:49:41;;;;;;;95.20;38.70;;;3.70;99.90;;;;;;4877487;29;20064;-89
2022/01/19 08:52:07;;;;;;;109.22;38.88;;;3.70;99.90;;;;;;4847104;29;20037;-90
2022/01/19 08:54:33;;;;;;;96.05;37.67;;;3.80;99.90;;;;;;4871859;29;20531;-88
2022/01/19 08:57:00;;;;;;;92.97;37.90;;;3.70;99.90;;;;;;4861471;29;20131;-88
2022/01/19 08:59:25;;;;;;;93.82;37.33;;;3.80;99.90;;;;;;4849436;29;20033;-89
2022/01/19 09:01:51;;;;;;;96.65;39.75;;;3.80;99.90;;;;;;4888866;29;20045;-88
2022/01/19 09:04:18;;;;;;;94.80;37.70;;;3.80;99.90;;;;;;4866316;29;20112;-88
2022/01/19 09:06:44;;;;;;;102.35;37.80;;;3.80;99.90;;;;;;4865696;29;20049;-88
2022/01/19 09:09:10;;;;;;;96.85;37.53;;;3.80;99.90;;;;;;4863904;29;20068;-88
2022/01/19 09:11:36;;;;;;;99.22;38.42;;;3.80;99.90;;;;;;4848424;29;20535;-89
2022/01/19 09:14:03;;;;;;;103.82;38.38;;;3.80;99.90;;;;;;4868565;29;20036;-88
2022/01/19 09:16:29;;;;;;;91.40;36.75;;;3.80;99.90;;;;;;4854567;29;20041;-88
2022/01/19 09:18:55;;;;;;;97.72;39.20;;;3.90;99.90;;;;;;4860721;29;20503;-88
2022/01/19 09:21:21;;;;;;;94.40;39.80;;;3.80;99.90;;;;;;4862309;29;20045;-87
2022/01/19 09:23:47;;;;;;;101.55;41.33;;;3.80;99.90;;;;;;4859354;29;20051;-88
2022/01/19 09:26:12;;;;;;;105.30;40.50;;;3.70;99.90;;;;;;4861002;29;20048;-88
2022/01/19 09:28:39;;;;;;;109.43;41.22;;;3.70;99.90;;;;;;4860546;29;20059;-88
2022/01/19 09:31:11;;;;;;;103.97;41.58;;;3.80;99.90;;;;;;4860379;29;20037;-89
2022/01/19 09:33:37;;;;;;;100.95;40.72;;;3.90;99.90;;;;;;4856463;29;20123;-88
2022/01/19 09:38:32;;;;;;;686.72;375.40;;;4.10;99.90;;;;;;4875319;29;20044;-89
2022/01/19 09:40:58;;;;;;;616.90;353.25;;;4.20;99.90;;;;;;4860593;29;20099;-89
2022/01/19 09:43:25;;;;;;;174.85;80.07;;;4.20;99.90;;;;;;4864810;29;20549;-89
2022/01/19 09:45:56;;;;;;;161.57;79.82;;;4.20;99.90;;;;;;4869699;29;20052;-89
2022/01/19 09:48:23;;;;;;;145.27;76.22;;;4.20;99.90;;;;;;4859211;29;20064;-88
2022/01/19 09:50:49;;;;;;;176.77;84.22;;;4.20;99.90;;;;;;4857224;29;20807;-89
2022/01/19 09:53:14;;;;;;;161.23;81.60;;;4.30;99.90;;;;;;4859913;29;20076;-90
2022/01/19 09:55:41;;;;;;;134.57;60.20;;;4.30;99.90;;;;;;4862570;29;20571;-89
2022/01/19 09:58:08;;;;;;;140.38;78.72;;;4.30;99.90;;;;;;4853179;29;20041;-90
2022/01/19 10:00:34;;;;;;;135.43;65.03;;;4.40;99.90;;;;;;4856123;29;20044;-89
2022/01/19 10:03:13;;;;;;;127.57;61.88;;;4.40;99.90;;;;;;4856054;29;20048;-88
2022/01/19 10:06:02;;;;;;;119.68;55.63;;;4.30;99.90;;;;;;4849166;29;20068;-89
2022/01/19 10:08:45;;;;;;;105.45;51.70;;;4.40;99.90;;;;;;4855150;29;20053;-92
2022/01/19 10:17:06;;;;;;;114.45;51.15;;;4.40;99.90;;;;;;4874527;29;20045;-92
2022/01/19 10:19:34;;;;;;;120.47;51.45;;;4.40;99.90;;;;;;4861063;29;20522;-92
2022/01/19 10:22:12;;;;;;;99.40;43.83;;;4.40;99.90;;;;;;4881774;29;20055;-91
2022/01/19 10:24:38;;;;;;;107.30;44.90;;;4.40;99.90;;;;;;4861624;29;20647;-91
2022/01/19 10:27:34;;;;;;;109.32;46.92;;;4.50;99.90;;;;;;4852430;29;20080;-91
2022/01/19 10:30:03;;;;;;;122.45;47.58;;;4.40;99.90;;;;;;4861818;29;20029;-93
2022/01/19 10:32:38;;;;;;;108.15;45.30;;;4.50;99.90;;;;;;4877458;29;20051;-92
2022/01/19 10:35:21;;;;;;;115.97;49.22;;;4.40;99.90;;;;;;4858346;29;20048;-92
2022/01/19 10:38:06;;;;;;;120.97;48.15;;;4.40;99.90;;;;;;4860305;29;20080;-92
2022/01/19 10:40:33;;;;;;;132.65;49.55;;;4.40;99.90;;;;;;4859750;29;20041;-90
2022/01/19 10:42:58;;;;;;;113.40;48.45;;;4.50;99.90;;;;;;4863327;29;20128;-90
2022/01/19 10:45:24;;;;;;;113.72;47.63;;;4.50;99.90;;;;;;4861190;29;20095;-91
2022/01/19 10:47:58;;;;;;;115.60;51.00;;;4.40;99.90;;;;;;4857395;29;20032;-91
2022/01/19 10:50:28;;;;;;;113.18;46.63;;;4.60;99.90;;;;;;4859884;29;20040;-89
2022/01/19 10:52:55;;;;;;;122.45;50.17;;;4.50;99.90;;;;;;4859680;29;20133;-90
2022/01/19 10:55:29;;;;;;;111.63;44.90;;;4.40;99.90;;;;;;4861172;29;20111;-89
2022/01/19 10:57:55;;;;;;;127.90;50.63;;;4.50;99.90;;;;;;4866188;29;20055;-90
2022/01/19 11:00:24;;;;;;;123.18;51.13;;;4.50;99.90;;;;;;4860401;29;20043;-90
2022/01/19 11:02:54;;;;;;;125.05;49.13;;;4.50;99.90;;;;;;4860771;29;20055;-92
2022/01/19 11:05:43;;;;;;;121.80;47.53;;;4.60;99.90;;;;;;4860332;29;20079;-90
2022/01/19 11:08:09;;;;;;;122.03;51.35;;;4.60;99.90;;;;;;4853999;29;20063;-91
2022/01/19 11:10:35;;;;;;;141.02;51.38;;;4.60;99.90;;;;;;4856636;29;20049;-92
2022/01/19 11:13:01;;;;;;;132.95;50.90;;;4.50;99.90;;;;;;4858452;29;20140;-91
2022/01/19 11:15:26;;;;;;;125.68;50.97;;;4.50;99.90;;;;;;4852769;29;20403;-90
2022/01/19 11:17:52;;;;;;;138.25;54.13;;;4.60;99.90;;;;;;4856346;29;20045;-90
2022/01/19 11:20:23;;;;;;;130.55;53.30;;;4.60;99.90;;;;;;4848076;29;20123;-93
2022/01/19 11:22:59;;;;;;;130.15;52.60;;;4.60;99.90;;;;;;4863162;29;20048;-91
2022/01/19 11:25:50;;;;;;;141.27;55.22;;;4.60;99.90;;;;;;4862418;29;20044;-92
2022/01/19 11:28:35;;;;;;;147.43;53.63;;;4.70;99.90;;;;;;4877661;29;20562;-91
2022/01/19 11:31:05;;;;;;;141.45;49.53;;;4.70;99.90;;;;;;4878205;29;20603;-92
2022/01/19 11:33:31;;;;;;;141.77;53.67;;;4.80;99.90;;;;;;4871197;29;20045;-92
2022/01/19 11:36:05;;;;;;;146.50;53.13;;;4.80;99.90;;;;;;4861306;29;20043;-92
2022/01/19 11:38:45;;;;;;;154.93;56.55;;;4.80;99.90;;;;;;4863465;29;20048;-93
2022/01/19 11:41:11;;;;;;;159.27;54.60;;;4.70;99.90;;;;;;4861457;29;20140;-92
2022/01/19 11:43:46;;;;;;;158.25;55.97;;;4.70;99.90;;;;;;4868575;29;20103;-92
2022/01/19 11:46:26;;;;;;;211.23;84.05;;;4.80;99.90;;;;;;4877024;29;20607;-92
2022/01/19 11:48:51;;;;;;;171.48;61.08;;;4.80;99.90;;;;;;4873115;29;20135;-91
2022/01/19 11:51:31;;;;;;;163.23;60.30;;;4.70;99.90;;;;;;4876540;29;20071;-92
2022/01/19 11:54:01;;;;;;;165.30;62.20;;;4.80;99.90;;;;;;4861906;29;20041;-92
2022/01/19 11:56:27;;;;;;;154.35;55.50;;;4.80;99.90;;;;;;4875836;29;20045;-92
2022/01/19 11:59:20;;;;;;;170.70;62.50;;;4.80;99.90;;;;;;4863479;29;20052;-92
2022/01/19 12:01:45;;;;;;;154.30;60.28;;;4.90;99.90;;;;;;4858441;29;20056;-92
2022/01/19 12:04:15;;;;;;;160.10;59.75;;;4.80;99.90;;;;;;4863643;29;20045;-90
2022/01/19 12:06:42;;;;;;;159.10;59.05;;;5.00;99.90;;;;;;4871986;29;20048;-91
2022/01/19 12:09:11;;;;;;;159.38;57.97;;;5.00;99.90;;;;;;4864324;29;20067;-91
2022/01/19 12:11:38;;;;;;;153.48;57.10;;;5.00;99.90;;;;;;4858780;29;20065;-91
2022/01/19 12:14:19;;;;;;;159.80;59.75;;;5.10;99.90;;;;;;4856305;29;20380;-92
2022/01/19 12:17:00;;;;;;;160.45;58.50;;;5.20;99.90;;;;;;4853227;29;20072;-92
2022/01/19 12:19:28;;;;;;;158.02;56.08;;;5.10;99.90;;;;;;4858034;29;20041;-93
2022/01/19 12:22:12;;;;;;;154.52;55.45;;;5.30;99.90;;;;;;4861582;29;20040;-92
2022/01/19 12:24:39;;;;;;;150.35;56.58;;;5.30;99.90;;;;;;4860104;29;20055;-90
2022/01/19 12:27:13;;;;;;;155.23;56.83;;;5.20;99.90;;;;;;4879279;29;20079;-92
2022/01/19 12:29:45;;;;;;;153.90;56.08;;;5.20;99.90;;;;;;4862190;29;20499;-92
2022/01/19 12:32:17;;;;;;;151.35;58.33;;;5.20;99.90;;;;;;4858450;29;20485;-93
2022/01/19 12:34:51;;;;;;;149.63;57.10;;;5.30;99.90;;;;;;4867960;29;20049;-93
2022/01/19 12:37:32;;;;;;;152.75;54.38;;;5.40;99.90;;;;;;4855459;29;20052;-91
2022/01/19 12:40:00;;;;;;;162.90;58.03;;;5.30;99.90;;;;;;4875145;29;20570;-91
2022/01/19 12:42:43;;;;;;;164.32;58.40;;;5.20;99.90;;;;;;4861601;29;20044;-92
2022/01/19 12:45:19;;;;;;;165.35;68.57;;;5.20;99.90;;;;;;4864028;29;20132;-91
2022/01/19 12:47:48;;;;;;;153.93;57.95;;;5.20;99.90;;;;;;4874083;29;20547;-93
2022/01/19 12:50:16;;;;;;;201.30;80.82;;;5.30;99.90;;;;;;4862606;29;20100;-94
2022/01/19 12:52:54;;;;;;;161.38;58.78;;;5.20;99.90;;;;;;4858281;29;20057;-96
2022/01/19 12:55:29;;;;;;;159.38;60.42;;;5.30;99.90;;;;;;4859862;29;20041;-95
2022/01/19 12:57:56;;;;;;;153.57;57.60;;;5.10;99.90;;;;;;4863430;29;20048;-96
2022/01/19 13:00:27;;;;;;;141.18;53.83;;;5.20;99.90;;;;;;4860637;29;20076;-96
2022/01/19 13:02:53;;;;;;;148.23;53.30;;;5.30;99.90;;;;;;4861832;29;20048;-95
2022/01/19 13:05:20;;;;;;;148.93;56.78;;;5.30;99.90;;;;;;4863184;29;20060;-94
2022/01/19 13:07:55;;;;;;;147.38;55.30;;;5.30;99.90;;;;;;4854173;29;20045;-95
2022/01/19 13:13:25;;;;;;;146.52;53.58;;;5.30;99.90;;;;;;4878330;29;20164;-96
2022/01/19 13:16:00;;;;;;;152.18;53.72;;;5.40;99.90;;;;;;4861688;29;20071;-95
2022/01/19 13:18:39;;;;;;;142.27;55.65;;;5.30;99.90;;;;;;4867269;29;20045;-95
2022/01/19 13:21:08;;;;;;;168.70;73.22;;;5.20;99.90;;;;;;4859865;29;20049;-96
2022/01/19 13:23:39;;;;;;;148.45;55.70;;;5.30;99.90;;;;;;4854174;29;20119;-96
2022/01/19 13:26:08;;;;;;;140.75;51.20;;;5.30;99.90;;;;;;4856380;29;20056;-94
2022/01/19 13:28:35;;;;;;;136.55;51.28;;;5.50;99.90;;;;;;4860830;29;20056;-96
2022/01/19 13:31:23;;;;;;;138.10;53.00;;;5.60;99.90;;;;;;4855959;29;20136;-95
2022/01/19 13:33:56;;;;;;;134.88;48.75;;;5.60;99.90;;;;;;4867635;29;20051;-94
2022/01/19 13:36:26;;;;;;;133.70;52.27;;;5.70;99.90;;;;;;4863080;29;20051;-95
2022/01/19 13:38:53;;;;;;;133.38;47.38;;;5.70;99.90;;;;;;4853181;29;20037;-96
2022/01/19 13:41:20;;;;;;;127.55;51.05;;;5.70;99.90;;;;;;4852721;29;20073;-96
2022/01/19 13:43:45;;;;;;;125.65;47.85;;;5.80;99.90;;;;;;4861164;29;20048;-96
2022/01/19 13:46:17;;;;;;;120.80;47.38;;;5.70;99.90;;;;;;4863073;29;20040;-95
2022/01/19 13:48:45;;;;;;;114.57;44.53;;;5.80;99.90;;;;;;4861876;29;20076;-95
2022/01/19 13:51:14;;;;;;;133.73;50.40;;;5.70;99.90;;;;;;4855227;29;20055;-94
2022/01/19 13:53:50;;;;;;;132.75;47.97;;;5.70;99.90;;;;;;4859672;29;20048;-95
2022/01/19 13:56:27;;;;;;;117.05;47.60;;;5.60;99.90;;;;;;4854643;29;20516;-94
2022/01/19 13:59:00;;;;;;;111.25;42.55;;;5.70;99.90;;;;;;4861219;29;20430;-96
2022/01/19 14:01:59;;;;;;;107.80;39.50;;;5.70;99.90;;;;;;4871124;29;20078;-95